Time;durP1;ratioP1;P1;durP2;ratioP2;P2;SDS_P1;SDS_P2;PMS_P1;PMS_P2;Temp;Humidity;BMP_temperature;BMP_pressure;BME280_temperature;BME280_humidity;BME280_pressure;Samples;Min_cycle;Max_cycle;Signal;HPM_P1;HPM_P2
2023/06/27 00:01:08;;;;;;;8.43;2.08;;;19.40;99.90;;;;;;5014871;28;20201;-71
2023/06/27 00:03:34;;;;;;;4.72;2.20;;;19.30;99.90;;;;;;5009624;28;20212;-71
2023/06/27 00:06:00;;;;;;;2.92;1.75;;;19.30;99.90;;;;;;5011257;28;20324;-71
2023/06/27 00:08:27;;;;;;;4.43;2.58;;;19.40;99.90;;;;;;5007396;28;20196;-71
2023/06/27 00:10:53;;;;;;;3.58;1.88;;;19.40;99.90;;;;;;5013266;28;20172;-71
2023/06/27 00:13:20;;;;;;;3.97;2.22;;;19.30;99.90;;;;;;5015608;28;20227;-71
2023/06/27 00:15:48;;;;;;;4.45;2.20;;;19.20;99.90;;;;;;5013008;28;20691;-71
2023/06/27 00:18:17;;;;;;;10.40;2.45;;;19.20;99.90;;;;;;5013398;28;20583;-71
2023/06/27 00:20:43;;;;;;;4.63;2.60;;;19.20;99.90;;;;;;5013663;28;20172;-71
2023/06/27 00:23:33;;;;;;;7.78;2.70;;;19.20;99.90;;;;;;5017910;28;20675;-72
2023/06/27 00:26:03;;;;;;;5.85;2.47;;;19.20;99.90;;;;;;5017196;28;20574;-70
2023/06/27 00:28:29;;;;;;;7.95;2.80;;;19.20;99.90;;;;;;5011008;28;20679;-68
2023/06/27 00:30:54;;;;;;;6.60;2.45;;;19.20;99.90;;;;;;5027435;28;20205;-70
2023/06/27 00:33:20;;;;;;;3.85;2.13;;;19.10;99.90;;;;;;5012752;28;20201;-70
2023/06/27 00:35:46;;;;;;;3.17;2.03;;;19.00;99.90;;;;;;5019409;28;20587;-71
2023/06/27 00:38:11;;;;;;;6.53;2.65;;;18.90;99.90;;;;;;5007201;28;20185;-70
2023/06/27 00:40:37;;;;;;;4.50;2.47;;;18.90;99.90;;;;;;5011922;28;20284;-71
2023/06/27 00:43:03;;;;;;;3.30;2.63;;;18.90;99.90;;;;;;5007864;28;20247;-71
2023/06/27 00:45:29;;;;;;;7.68;2.40;;;18.90;99.90;;;;;;5009325;28;20304;-69
2023/06/27 00:47:56;;;;;;;4.75;2.30;;;18.90;99.90;;;;;;5007419;28;20206;-71
2023/06/27 00:50:24;;;;;;;6.97;2.42;;;18.90;99.90;;;;;;5009467;28;20609;-71
2023/06/27 00:52:51;;;;;;;7.55;3.38;;;18.80;99.90;;;;;;5010746;28;20247;-71
2023/06/27 00:55:17;;;;;;;6.97;2.65;;;18.70;99.90;;;;;;5013896;28;20259;-71
2023/06/27 00:57:46;;;;;;;5.82;2.45;;;18.80;99.90;;;;;;5011692;28;20292;-70
2023/06/27 01:00:15;;;;;;;7.07;2.50;;;18.70;99.90;;;;;;5012333;28;20275;-70
2023/06/27 01:02:41;;;;;;;5.35;2.40;;;18.70;99.90;;;;;;5012928;28;20617;-71
2023/06/27 01:05:07;;;;;;;7.20;2.45;;;18.70;99.90;;;;;;5003286;28;20206;-72
2023/06/27 01:07:46;;;;;;;6.30;3.05;;;18.70;99.90;;;;;;5020942;28;20201;-72
2023/06/27 01:10:25;;;;;;;4.10;2.42;;;18.60;99.90;;;;;;5023388;28;20208;-71
2023/06/27 01:13:09;;;;;;;5.05;2.72;;;18.60;99.90;;;;;;5021849;28;20204;-71
2023/06/27 01:15:36;;;;;;;4.97;2.47;;;18.60;99.90;;;;;;5020523;28;20240;-71
2023/06/27 01:18:03;;;;;;;4.68;2.00;;;18.60;99.90;;;;;;5018546;28;20218;-71
2023/06/27 01:20:29;;;;;;;5.90;2.78;;;18.50;99.90;;;;;;5012711;28;20557;-68
2023/06/27 01:23:09;;;;;;;9.27;2.60;;;18.50;99.90;;;;;;5002751;28;20282;-71
2023/06/27 01:25:37;;;;;;;8.27;3.20;;;18.40;99.90;;;;;;5006856;28;20213;-71
2023/06/27 01:28:04;;;;;;;10.00;3.42;;;18.40;99.90;;;;;;5012492;28;20595;-71
2023/06/27 01:30:33;;;;;;;6.28;2.60;;;18.40;99.90;;;;;;5010949;28;20204;-69
2023/06/27 01:33:06;;;;;;;4.97;2.45;;;18.30;99.90;;;;;;5011817;28;20754;-70
2023/06/27 01:35:48;;;;;;;7.45;2.95;;;18.30;99.90;;;;;;5009783;28;20247;-71
2023/06/27 01:38:22;;;;;;;10.80;3.42;;;18.20;99.90;;;;;;5009452;28;20169;-71
2023/06/27 01:40:49;;;;;;;7.85;3.28;;;18.20;99.90;;;;;;5013595;28;20287;-71
2023/06/27 01:43:16;;;;;;;8.43;3.15;;;18.20;99.90;;;;;;5011084;28;20792;-72
2023/06/27 01:45:42;;;;;;;7.38;3.05;;;18.20;99.90;;;;;;5016360;28;20220;-71
2023/06/27 01:48:08;;;;;;;8.52;3.03;;;18.10;99.90;;;;;;5021590;28;20721;-71
2023/06/27 01:50:34;;;;;;;7.35;2.95;;;18.10;99.90;;;;;;5002960;28;20213;-70
2023/06/27 01:53:00;;;;;;;7.47;2.92;;;18.20;99.90;;;;;;5009956;28;20174;-70
2023/06/27 01:55:25;;;;;;;10.45;4.20;;;18.10;99.90;;;;;;5005697;28;20212;-70
2023/06/27 01:57:51;;;;;;;14.13;4.25;;;18.10;99.90;;;;;;5007498;28;20296;-70
2023/06/27 02:00:18;;;;;;;7.60;3.10;;;18.00;99.90;;;;;;5011753;28;20578;-71
2023/06/27 02:02:44;;;;;;;6.88;2.88;;;18.00;99.90;;;;;;5007102;28;20189;-70
2023/06/27 02:05:10;;;;;;;10.20;3.25;;;18.00;99.90;;;;;;5006589;28;20758;-70
2023/06/27 02:07:36;;;;;;;9.00;3.20;;;18.00;99.90;;;;;;5008360;28;20285;-71
2023/06/27 02:10:02;;;;;;;9.55;3.15;;;17.90;99.90;;;;;;5015504;28;20579;-70
2023/06/27 02:12:27;;;;;;;11.43;3.20;;;18.00;99.90;;;;;;5011457;28;20237;-71
2023/06/27 02:14:53;;;;;;;7.80;3.00;;;18.00;99.90;;;;;;5014426;28;20696;-71
2023/06/27 02:17:19;;;;;;;7.25;2.90;;;17.90;99.90;;;;;;5010262;28;20184;-71
2023/06/27 02:19:45;;;;;;;8.68;3.13;;;17.80;99.90;;;;;;5009647;28;20209;-72
2023/06/27 02:22:10;;;;;;;9.85;3.65;;;17.70;99.90;;;;;;5012423;28;20718;-71
2023/06/27 02:24:36;;;;;;;8.02;3.40;;;17.70;99.90;;;;;;5009619;28;20197;-69
2023/06/27 02:27:01;;;;;;;7.95;3.30;;;17.60;99.90;;;;;;5003061;28;20307;-70
2023/06/27 02:29:27;;;;;;;10.60;3.25;;;17.60;99.90;;;;;;5004102;28;20173;-72
2023/06/27 02:31:53;;;;;;;7.43;2.70;;;17.60;99.90;;;;;;5001781;28;20185;-70
2023/06/27 02:34:18;;;;;;;7.45;3.38;;;17.50;99.90;;;;;;5010937;28;20284;-69
2023/06/27 02:36:44;;;;;;;9.05;3.60;;;17.50;99.90;;;;;;5002651;28;20212;-71
2023/06/27 02:39:10;;;;;;;6.32;3.10;;;17.60;99.90;;;;;;5012019;28;20590;-71
2023/06/27 02:41:35;;;;;;;8.32;3.50;;;17.60;99.90;;;;;;5010248;28;20197;-70
2023/06/27 02:44:01;;;;;;;6.47;3.22;;;17.60;99.90;;;;;;5012884;28;20261;-70
2023/06/27 02:46:26;;;;;;;7.03;3.17;;;17.60;99.90;;;;;;5002725;28;20213;-71
2023/06/27 02:48:52;;;;;;;9.27;3.25;;;17.50;99.90;;;;;;5010927;28;20220;-71
2023/06/27 02:51:18;;;;;;;7.55;2.78;;;17.50;99.90;;;;;;5011536;28;20197;-71
2023/06/27 02:53:43;;;;;;;8.85;4.50;;;17.50;99.90;;;;;;5011720;28;20173;-71
2023/06/27 02:56:09;;;;;;;9.18;3.38;;;17.40;99.90;;;;;;5011065;28;20292;-71
2023/06/27 02:58:35;;;;;;;24.15;8.55;;;17.50;99.90;;;;;;5011956;28;20582;-70
2023/06/27 03:01:03;;;;;;;9.73;4.15;;;17.50;99.90;;;;;;5009342;28;20255;-70
2023/06/27 03:03:28;;;;;;;8.98;3.17;;;17.50;99.90;;;;;;5007218;28;20299;-70
2023/06/27 03:05:54;;;;;;;9.20;2.90;;;17.50;99.90;;;;;;5008997;28;20303;-71
2023/06/27 03:08:20;;;;;;;8.80;3.03;;;17.40;99.90;;;;;;5010135;28;20562;-71
2023/06/27 03:10:45;;;;;;;8.77;3.60;;;17.40;99.90;;;;;;5010288;28;20304;-71
2023/06/27 03:13:11;;;;;;;7.75;3.05;;;17.50;99.90;;;;;;5011585;28;20228;-70
2023/06/27 03:15:37;;;;;;;7.72;2.65;;;17.40;99.90;;;;;;5013664;28;20204;-70
2023/06/27 03:18:02;;;;;;;9.85;2.90;;;17.60;99.90;;;;;;5010686;28;20201;-71
2023/06/27 03:20:28;;;;;;;7.65;3.00;;;17.60;99.90;;;;;;5010347;28;20173;-72
2023/06/27 03:22:54;;;;;;;11.13;3.65;;;17.60;99.90;;;;;;5009734;28;20209;-70
2023/06/27 03:25:20;;;;;;;5.63;3.10;;;17.70;99.90;;;;;;5010503;28;20209;-71
2023/06/27 03:27:45;;;;;;;11.77;3.22;;;17.90;99.90;;;;;;5011987;28;20295;-71
2023/06/27 03:30:12;;;;;;;9.60;3.13;;;18.70;99.90;;;;;;5009371;28;20259;-71
2023/06/27 03:32:38;;;;;;;8.25;3.05;;;19.30;99.90;;;;;;5009452;28;20181;-69
2023/06/27 03:35:04;;;;;;;8.68;2.58;;;19.70;99.90;;;;;;5010820;28;20243;-71
2023/06/27 03:37:30;;;;;;;10.18;3.22;;;19.90;99.90;;;;;;5010225;28;20216;-68
2023/06/27 03:39:56;;;;;;;7.97;3.15;;;20.10;99.90;;;;;;5010602;28;20251;-70
2023/06/27 03:42:22;;;;;;;9.50;3.28;;;20.10;99.90;;;;;;5009236;28;20231;-71
2023/06/27 03:44:48;;;;;;;8.60;2.75;;;20.10;99.90;;;;;;5009934;28;20581;-71
2023/06/27 03:47:13;;;;;;;9.85;2.65;;;20.10;99.90;;;;;;5011927;28;20660;-71
2023/06/27 03:49:39;;;;;;;8.40;2.97;;;20.20;99.90;;;;;;5011233;28;20228;-70
2023/06/27 03:52:05;;;;;;;8.75;3.25;;;20.30;99.90;;;;;;5012808;28;20299;-71
2023/06/27 03:54:30;;;;;;;11.48;2.80;;;20.40;99.90;;;;;;5008435;28;20244;-68
2023/06/27 03:56:56;;;;;;;6.00;2.70;;;20.50;99.90;;;;;;5013035;28;20413;-71
2023/06/27 03:59:21;;;;;;;10.00;2.88;;;21.20;99.90;;;;;;5010044;28;20208;-71
2023/06/27 04:01:47;;;;;;;7.95;2.88;;;21.90;99.90;;;;;;5008843;28;20208;-71
2023/06/27 04:04:13;;;;;;;7.13;2.38;;;22.70;99.90;;;;;;5011051;28;20213;-70
2023/06/27 04:06:38;;;;;;;10.23;3.03;;;23.20;99.90;;;;;;5010773;28;20244;-71
2023/06/27 04:09:04;;;;;;;7.22;2.50;;;23.70;99.90;;;;;;5011392;28;20722;-71
2023/06/27 04:11:31;;;;;;;7.75;2.55;;;24.10;99.90;;;;;;5013598;28;20185;-70
2023/06/27 04:13:58;;;;;;;7.10;2.50;;;24.40;99.90;;;;;;5012934;28;20199;-71
2023/06/27 04:16:25;;;;;;;5.53;2.55;;;24.90;99.90;;;;;;5009004;28;20227;-71
2023/06/27 04:18:50;;;;;;;8.23;3.13;;;25.20;99.90;;;;;;5009463;28;20593;-71
2023/06/27 04:21:16;;;;;;;7.85;3.55;;;25.70;99.90;;;;;;5009377;28;20212;-71
2023/06/27 04:23:41;;;;;;;11.27;3.00;;;26.10;99.90;;;;;;5009996;28;20205;-71
2023/06/27 04:26:15;;;;;;;7.20;2.83;;;26.60;99.90;;;;;;5009543;28;20189;-71
2023/06/27 04:28:41;;;;;;;4.78;2.50;;;26.90;99.90;;;;;;5011849;28;20200;-71
2023/06/27 04:31:06;;;;;;;6.47;2.85;;;27.00;99.90;;;;;;5013635;28;20205;-71
2023/06/27 04:33:32;;;;;;;7.60;2.60;;;26.90;99.90;;;;;;5013251;28;20205;-71
2023/06/27 04:36:02;;;;;;;4.82;2.47;;;27.60;99.90;;;;;;5012867;28;20221;-72
2023/06/27 04:38:29;;;;;;;8.23;2.58;;;27.60;99.90;;;;;;5015448;28;20173;-72
2023/06/27 04:40:55;;;;;;;11.30;2.70;;;27.90;99.90;;;;;;5013936;28;20216;-72
2023/06/27 04:43:21;;;;;;;7.13;2.33;;;27.30;99.90;;;;;;5018360;28;20247;-70
2023/06/27 04:45:47;;;;;;;8.55;2.70;;;27.60;99.90;;;;;;5021764;28;20688;-71
2023/06/27 04:48:12;;;;;;;6.15;2.70;;;27.50;99.90;;;;;;5013370;28;20208;-70
2023/06/27 04:50:38;;;;;;;9.40;3.17;;;26.90;99.90;;;;;;5014082;28;20308;-70
2023/06/27 04:53:03;;;;;;;7.97;2.65;;;26.40;99.90;;;;;;5016053;28;20177;-69
2023/06/27 04:55:29;;;;;;;6.15;2.25;;;26.70;99.90;;;;;;5012278;28;20204;-70
2023/06/27 04:57:55;;;;;;;9.45;2.72;;;27.30;99.90;;;;;;5016488;28;20691;-70
2023/06/27 05:00:21;;;;;;;6.43;2.60;;;27.30;99.90;;;;;;5014258;28;20216;-71
2023/06/27 05:02:46;;;;;;;7.18;2.28;;;28.10;99.90;;;;;;5014750;28;20232;-68
2023/06/27 05:05:12;;;;;;;6.15;2.88;;;27.30;99.90;;;;;;5013458;28;20213;-71
2023/06/27 05:07:37;;;;;;;6.47;2.38;;;27.80;99.90;;;;;;5012719;28;20212;-72
2023/06/27 05:10:03;;;;;;;4.70;2.15;;;28.30;99.90;;;;;;5017926;28;20215;-70
2023/06/27 05:12:29;;;;;;;7.65;2.78;;;28.80;99.90;;;;;;5024542;28;20672;-70
2023/06/27 05:14:54;;;;;;;7.40;3.08;;;29.30;99.90;;;;;;5022072;28;20686;-70
2023/06/27 05:17:20;;;;;;;7.35;2.58;;;29.30;99.90;;;;;;5015710;28;20644;-71
2023/06/27 05:19:46;;;;;;;10.27;3.78;;;29.30;99.90;;;;;;5021307;28;20220;-70
2023/06/27 05:22:13;;;;;;;10.43;2.65;;;29.70;99.90;;;;;;5018129;28;20693;-70
2023/06/27 05:24:38;;;;;;;7.10;2.92;;;29.60;99.90;;;;;;5017740;28;20700;-70
2023/06/27 05:27:04;;;;;;;7.25;2.30;;;29.80;99.90;;;;;;5015196;28;20205;-70
2023/06/27 05:29:30;;;;;;;6.90;2.83;;;29.20;99.90;;;;;;5014664;28;20200;-70
2023/06/27 05:31:55;;;;;;;8.77;2.53;;;29.40;99.90;;;;;;5018580;28;20640;-70
2023/06/27 05:34:21;;;;;;;5.53;2.45;;;29.50;99.90;;;;;;5012634;28;20211;-71
2023/06/27 05:36:46;;;;;;;9.60;2.55;;;28.60;99.90;;;;;;5013470;28;20637;-70
2023/06/27 05:39:12;;;;;;;5.47;2.35;;;29.20;99.90;;;;;;5011624;28;20201;-69
2023/06/27 05:41:38;;;;;;;9.50;2.85;;;29.60;99.90;;;;;;5014787;28;20185;-70
2023/06/27 05:44:03;;;;;;;10.98;2.13;;;29.50;99.90;;;;;;5017614;28;20203;-70
2023/06/27 05:46:34;;;;;;;5.32;2.63;;;29.90;99.90;;;;;;5011861;28;20212;-70
2023/06/27 05:49:00;;;;;;;6.50;2.30;;;29.80;99.90;;;;;;5016230;28;20299;-70
2023/06/27 05:51:25;;;;;;;5.25;2.40;;;29.80;99.90;;;;;;5020185;28;20205;-70
2023/06/27 05:53:51;;;;;;;5.30;2.00;;;29.80;99.90;;;;;;5011969;28;20242;-70
2023/06/27 05:56:17;;;;;;;7.60;2.55;;;30.00;99.90;;;;;;5019689;28;20204;-70
2023/06/27 05:58:42;;;;;;;7.75;2.13;;;30.00;99.90;;;;;;5014979;28;20625;-71
2023/06/27 06:01:08;;;;;;;10.43;2.25;;;29.20;99.90;;;;;;5014729;28;20207;-69
2023/06/27 06:03:34;;;;;;;5.50;2.67;;;28.90;99.90;;;;;;5014065;28;20711;-68
2023/06/27 06:05:59;;;;;;;5.95;2.72;;;28.80;99.90;;;;;;5013698;28;20219;-70
2023/06/27 06:08:25;;;;;;;7.10;2.50;;;28.00;99.90;;;;;;5012748;28;20227;-70
2023/06/27 06:10:51;;;;;;;6.22;2.42;;;28.90;99.90;;;;;;5015763;28;20611;-68
2023/06/27 06:13:16;;;;;;;7.82;2.85;;;28.90;99.90;;;;;;5016458;28;20229;-70
2023/06/27 06:15:42;;;;;;;6.07;2.60;;;28.80;99.90;;;;;;5015178;28;20262;-70
2023/06/27 06:18:08;;;;;;;12.07;2.75;;;29.60;99.90;;;;;;5008888;28;20205;-70
2023/06/27 06:20:33;;;;;;;8.13;2.60;;;29.90;99.90;;;;;;5010170;28;20208;-70
2023/06/27 06:22:59;;;;;;;9.60;2.58;;;30.20;99.90;;;;;;5013412;28;20204;-68
2023/06/27 06:25:26;;;;;;;7.50;2.42;;;29.70;99.90;;;;;;5011704;28;20320;-71
2023/06/27 06:27:53;;;;;;;6.18;2.15;;;29.00;99.90;;;;;;5013720;28;20213;-70
2023/06/27 06:30:18;;;;;;;7.60;2.20;;;28.20;99.90;;;;;;5013060;28;20210;-70
2023/06/27 06:32:44;;;;;;;8.20;2.30;;;27.90;99.90;;;;;;5018442;28;20556;-70
2023/06/27 06:35:10;;;;;;;9.43;2.85;;;26.70;99.90;;;;;;5015010;28;20200;-71
2023/06/27 06:37:36;;;;;;;5.93;2.08;;;27.70;99.90;;;;;;5012947;28;20226;-69
2023/06/27 06:40:02;;;;;;;5.93;2.28;;;27.70;99.90;;;;;;5018527;28;20211;-70
2023/06/27 06:42:28;;;;;;;6.85;2.53;;;26.50;99.90;;;;;;5018336;28;20717;-70
2023/06/27 06:44:56;;;;;;;9.00;2.30;;;26.00;99.90;;;;;;5013334;28;20217;-70
2023/06/27 06:47:22;;;;;;;7.50;2.40;;;26.50;99.90;;;;;;5014367;28;20264;-71
2023/06/27 06:49:47;;;;;;;8.23;2.30;;;27.80;99.90;;;;;;5015467;28;20734;-70
2023/06/27 06:52:13;;;;;;;7.63;2.20;;;27.80;99.90;;;;;;5012398;28;20196;-70
2023/06/27 06:54:39;;;;;;;8.38;2.78;;;27.80;99.90;;;;;;5013521;28;20871;-68
2023/06/27 06:57:06;;;;;;;6.47;2.78;;;28.00;99.90;;;;;;5013370;28;20204;-72
2023/06/27 06:59:32;;;;;;;6.18;2.60;;;27.60;99.90;;;;;;5010830;28;20181;-72
2023/06/27 07:01:57;;;;;;;7.57;2.50;;;27.40;99.90;;;;;;5012696;28;20164;-68
2023/06/27 07:04:23;;;;;;;4.68;1.92;;;27.40;99.90;;;;;;5014778;28;20853;-71
2023/06/27 07:06:48;;;;;;;5.88;2.92;;;26.40;99.90;;;;;;5015713;28;20224;-72
2023/06/27 07:09:14;;;;;;;3.30;1.83;;;28.20;99.90;;;;;;5013311;28;20794;-72
2023/06/27 07:11:40;;;;;;;5.05;1.88;;;29.40;99.90;;;;;;5010573;28;20177;-71
2023/06/27 07:14:06;;;;;;;9.13;2.13;;;30.10;99.90;;;;;;5011858;28;20694;-71
2023/06/27 07:16:31;;;;;;;5.65;2.28;;;30.20;99.90;;;;;;5017946;28;20212;-71
2023/06/27 07:18:57;;;;;;;4.75;1.92;;;29.70;99.90;;;;;;5015963;28;20201;-70
2023/06/27 07:21:23;;;;;;;4.07;1.30;;;29.50;99.90;;;;;;5013193;28;20663;-72
2023/06/27 07:23:48;;;;;;;4.43;1.88;;;29.20;99.90;;;;;;5013465;28;20583;-71
2023/06/27 07:26:14;;;;;;;5.07;1.73;;;27.70;99.90;;;;;;5009898;28;20203;-71
2023/06/27 07:28:40;;;;;;;3.97;1.67;;;26.00;99.90;;;;;;5014467;28;20244;-70
2023/06/27 07:31:05;;;;;;;7.40;2.03;;;24.80;99.90;;;;;;5014373;28;20205;-71
2023/06/27 07:33:31;;;;;;;5.38;1.90;;;25.90;99.90;;;;;;5011687;28;20298;-73
2023/06/27 07:35:57;;;;;;;5.00;1.90;;;27.20;99.90;;;;;;5012002;28;20298;-70
2023/06/27 07:38:23;;;;;;;6.53;2.30;;;26.80;99.90;;;;;;5012286;28;20192;-69
2023/06/27 07:40:49;;;;;;;8.20;2.50;;;26.30;99.90;;;;;;5010750;28;20217;-70
2023/06/27 07:43:15;;;;;;;5.20;2.10;;;25.90;99.90;;;;;;5010492;28;20263;-70
2023/06/27 07:45:40;;;;;;;6.47;2.05;;;25.10;99.90;;;;;;5017391;28;20205;-69
2023/06/27 07:48:06;;;;;;;12.15;7.57;;;24.20;99.90;;;;;;5016269;28;20269;-71
2023/06/27 07:50:32;;;;;;;15.38;10.68;;;23.40;99.90;;;;;;5017649;28;20608;-68
2023/06/27 07:52:57;;;;;;;5.05;1.70;;;24.00;99.90;;;;;;5016293;28;20182;-68
2023/06/27 07:55:23;;;;;;;5.15;1.80;;;25.90;99.90;;;;;;5013618;28;20247;-71
2023/06/27 07:57:48;;;;;;;5.97;1.75;;;28.30;99.90;;;;;;5013982;28;20296;-71
2023/06/27 08:00:15;;;;;;;2.60;1.30;;;29.70;99.90;;;;;;5012632;28;20254;-71
2023/06/27 08:02:41;;;;;;;3.30;1.75;;;30.30;99.90;;;;;;5011948;28;20196;-68
2023/06/27 08:05:07;;;;;;;9.25;2.30;;;30.10;99.90;;;;;;5022257;28;20207;-70
2023/06/27 08:07:33;;;;;;;4.90;1.90;;;30.90;99.40;;;;;;5014929;28;20231;-71
2023/06/27 08:09:59;;;;;;;2.60;1.45;;;31.30;96.40;;;;;;5017776;28;20208;-70
2023/06/27 08:12:25;;;;;;;4.57;1.40;;;31.40;95.40;;;;;;5016496;28;20302;-69
2023/06/27 08:14:50;;;;;;;4.25;2.08;;;32.10;94.90;;;;;;5019530;28;20240;-70
2023/06/27 08:17:16;;;;;;;4.30;1.70;;;32.50;93.00;;;;;;5014846;28;20181;-68
2023/06/27 08:19:42;;;;;;;5.75;1.83;;;32.70;91.60;;;;;;5014359;28;20215;-69
2023/06/27 08:22:07;;;;;;;3.63;1.50;;;33.00;91.40;;;;;;5014035;28;20196;-70
2023/06/27 08:24:33;;;;;;;5.43;1.63;;;31.90;91.90;;;;;;5021406;28;20209;-67
2023/06/27 08:26:59;;;;;;;5.43;1.77;;;30.40;93.40;;;;;;5022249;28;20415;-67
2023/06/27 08:29:25;;;;;;;3.10;1.38;;;27.70;95.60;;;;;;5021903;28;20188;-69
2023/06/27 08:31:54;;;;;;;2.60;1.35;;;27.40;97.80;;;;;;5016679;28;20213;-70
2023/06/27 08:34:19;;;;;;;6.68;1.60;;;27.60;97.10;;;;;;5015878;28;20271;-70
2023/06/27 08:36:45;;;;;;;3.63;1.70;;;28.40;97.20;;;;;;5016764;28;20212;-70
2023/06/27 08:39:11;;;;;;;5.60;1.45;;;28.50;96.90;;;;;;5016321;28;20291;-69
2023/06/27 08:41:36;;;;;;;5.35;1.55;;;27.60;97.20;;;;;;5013363;28;20176;-69
2023/06/27 08:44:02;;;;;;;4.07;1.83;;;26.60;99.60;;;;;;5018658;28;20207;-69
2023/06/27 08:46:31;;;;;;;3.78;1.60;;;26.00;99.90;;;;;;5015734;28;20212;-70
2023/06/27 08:49:01;;;;;;;4.40;1.52;;;25.30;99.90;;;;;;5016942;28;20209;-68
2023/06/27 08:51:29;;;;;;;6.00;1.40;;;24.90;99.90;;;;;;5015323;28;20205;-70
2023/06/27 08:54:01;;;;;;;6.47;1.65;;;24.30;99.90;;;;;;5014625;28;20743;-69
2023/06/27 08:56:28;;;;;;;4.88;1.67;;;24.10;99.90;;;;;;5014442;28;20573;-71
2023/06/27 08:59:09;;;;;;;4.75;1.30;;;23.80;99.90;;;;;;5012641;28;20169;-73
2023/06/27 09:01:38;;;;;;;7.72;2.08;;;24.90;99.90;;;;;;5013054;28;20201;-70
2023/06/27 09:04:04;;;;;;;5.85;1.65;;;25.50;99.90;;;;;;5022458;28;20220;-71
2023/06/27 09:06:30;;;;;;;3.67;1.90;;;25.90;99.90;;;;;;5016630;28;20228;-70
2023/06/27 09:08:55;;;;;;;5.35;1.58;;;26.10;99.90;;;;;;5021168;28;20212;-70
2023/06/27 09:11:23;;;;;;;5.97;1.75;;;26.40;99.90;;;;;;5018492;28;20264;-70
2023/06/27 09:13:49;;;;;;;3.65;1.50;;;26.00;99.90;;;;;;5016232;28;20227;-70
2023/06/27 09:16:15;;;;;;;6.85;1.80;;;24.70;99.90;;;;;;5014598;28;20235;-70
2023/06/27 09:18:41;;;;;;;6.15;1.60;;;23.40;99.90;;;;;;5014396;28;20280;-70
2023/06/27 09:21:07;;;;;;;3.03;1.33;;;22.60;99.90;;;;;;5014457;28;20232;-71
2023/06/27 09:23:32;;;;;;;6.13;2.83;;;22.10;99.90;;;;;;5013786;28;20200;-70
2023/06/27 09:26:11;;;;;;;15.68;8.60;;;21.70;99.90;;;;;;5017447;28;20197;-67
2023/06/27 09:28:46;;;;;;;6.93;3.15;;;21.50;99.90;;;;;;5013215;28;20557;-71
2023/06/27 09:31:13;;;;;;;5.40;1.60;;;21.20;99.90;;;;;;5012275;28;20442;-71
2023/06/27 09:33:40;;;;;;;3.10;1.50;;;21.00;99.90;;;;;;5012168;28;20755;-71
2023/06/27 09:36:06;;;;;;;2.17;1.42;;;21.00;99.90;;;;;;5012382;28;20251;-70
2023/06/27 09:38:32;;;;;;;4.97;1.55;;;21.20;99.90;;;;;;5012655;28;20173;-70
2023/06/27 09:41:08;;;;;;;3.13;1.33;;;21.80;99.90;;;;;;5017815;28;20521;-69
2023/06/27 09:43:35;;;;;;;4.07;1.50;;;22.90;99.90;;;;;;5019962;28;20607;-71
2023/06/27 09:46:03;;;;;;;4.82;1.60;;;24.00;99.90;;;;;;5020377;28;20226;-70
2023/06/27 09:48:32;;;;;;;2.50;1.70;;;24.60;99.90;;;;;;5017463;28;20211;-70
2023/06/27 09:51:02;;;;;;;3.03;1.75;;;25.10;99.90;;;;;;5014716;28;20267;-68
2023/06/27 09:53:29;;;;;;;6.32;2.17;;;25.20;99.90;;;;;;5012088;28;20204;-70
2023/06/27 09:55:59;;;;;;;7.65;2.22;;;24.80;99.90;;;;;;5016468;28;20201;-70
2023/06/27 09:58:29;;;;;;;3.17;1.70;;;25.10;99.90;;;;;;5015641;28;20589;-71
2023/06/27 10:01:05;;;;;;;5.85;1.83;;;25.50;99.90;;;;;;5012236;28;20223;-72
2023/06/27 10:03:31;;;;;;;2.75;1.55;;;25.70;99.90;;;;;;5008365;28;20821;-70
2023/06/27 10:05:57;;;;;;;4.32;1.83;;;26.00;99.90;;;;;;5011112;28;20746;-68
2023/06/27 10:08:23;;;;;;;4.18;1.27;;;26.40;99.90;;;;;;5014372;28;20185;-70
2023/06/27 10:10:50;;;;;;;4.45;1.48;;;26.40;99.90;;;;;;5013348;28;20596;-69
2023/06/27 10:13:16;;;;;;;6.03;1.60;;;25.80;99.90;;;;;;5012364;28;20201;-71
2023/06/27 10:15:41;;;;;;;4.38;1.80;;;25.10;99.90;;;;;;5011544;28;20221;-72
2023/06/27 10:18:07;;;;;;;2.78;1.30;;;24.50;99.90;;;;;;5013316;28;20270;-70
2023/06/27 10:20:33;;;;;;;3.72;1.40;;;23.90;99.90;;;;;;5016865;28;20180;-70
2023/06/27 10:22:59;;;;;;;4.20;1.65;;;23.40;99.90;;;;;;5010420;28;20201;-70
2023/06/27 10:25:26;;;;;;;7.05;1.52;;;23.10;99.90;;;;;;5017839;28;20621;-70
2023/06/27 10:28:07;;;;;;;2.38;1.48;;;22.40;99.90;;;;;;5016387;28;20205;-70
2023/06/27 10:30:37;;;;;;;3.45;1.20;;;22.00;99.90;;;;;;5017306;28;20224;-70
2023/06/27 10:33:10;;;;;;;3.17;1.35;;;21.90;99.90;;;;;;5015102;28;20236;-70
2023/06/27 10:35:39;;;;;;;4.10;1.67;;;22.30;99.90;;;;;;5016264;28;20196;-70
2023/06/27 10:38:08;;;;;;;2.80;1.30;;;22.90;99.90;;;;;;5017484;28;20704;-72
2023/06/27 10:41:13;;;;;;;2.88;1.30;;;22.60;99.90;;;;;;5014915;28;20204;-70
2023/06/27 10:43:50;;;;;;;4.97;1.75;;;21.70;99.90;;;;;;4999181;28;20712;-70
2023/06/27 10:46:20;;;;;;;6.45;1.70;;;20.70;99.90;;;;;;5012131;28;20204;-71
2023/06/27 10:48:47;;;;;;;5.22;1.48;;;20.10;99.90;;;;;;5012991;28;20201;-71
2023/06/27 10:51:21;;;;;;;1.75;1.27;;;19.70;99.90;;;;;;5011524;28;20666;-70
2023/06/27 10:54:09;;;;;;;3.45;1.80;;;19.50;99.90;;;;;;5011839;28;20587;-68
2023/06/27 10:56:37;;;;;;;1.67;0.80;;;19.60;99.90;;;;;;5007712;28;20193;-70
2023/06/27 10:59:04;;;;;;;3.55;1.40;;;19.60;99.90;;;;;;5017901;28;20228;-70
2023/06/27 11:01:34;;;;;;;4.68;1.42;;;19.70;99.90;;;;;;5016432;28;20211;-70
2023/06/27 11:04:14;;;;;;;2.03;1.05;;;20.00;99.90;;;;;;5014079;28;20639;-68
2023/06/27 11:06:42;;;;;;;1.63;1.00;;;20.30;99.90;;;;;;5010187;28;20228;-70
2023/06/27 11:09:18;;;;;;;2.88;0.80;;;20.60;99.90;;;;;;5017289;28;20220;-70
2023/06/27 11:12:17;;;;;;;5.82;1.73;;;20.80;99.90;;;;;;5012125;28;20181;-70
2023/06/27 11:14:46;;;;;;;1.40;0.85;;;21.20;99.90;;;;;;5011054;28;20712;-70
2023/06/27 11:17:12;;;;;;;3.20;0.98;;;21.60;99.90;;;;;;5014031;28;20189;-70
2023/06/27 11:19:40;;;;;;;2.90;1.40;;;21.60;99.90;;;;;;5012422;28;20205;-70
2023/06/27 11:22:06;;;;;;;3.63;1.70;;;21.90;99.90;;;;;;5014261;28;20628;-70
2023/06/27 11:24:32;;;;;;;4.47;1.50;;;22.20;99.90;;;;;;5011867;28;20578;-70
2023/06/27 11:26:59;;;;;;;2.70;1.00;;;22.20;99.90;;;;;;5012802;28;20714;-70
2023/06/27 11:29:25;;;;;;;3.13;1.30;;;22.30;99.90;;;;;;5010566;28;20181;-70
2023/06/27 11:31:54;;;;;;;4.10;1.23;;;22.20;99.90;;;;;;5013120;28;20208;-70
2023/06/27 11:34:20;;;;;;;3.70;1.80;;;22.50;99.90;;;;;;5010268;28;20208;-70
2023/06/27 11:36:46;;;;;;;2.28;0.85;;;22.80;99.90;;;;;;5016075;28;20243;-71
2023/06/27 11:39:12;;;;;;;4.00;1.45;;;23.00;99.90;;;;;;5019882;28;20663;-70
2023/06/27 11:41:39;;;;;;;3.78;1.23;;;23.00;99.90;;;;;;5016464;28;20181;-70
2023/06/27 11:44:11;;;;;;;3.60;1.20;;;22.80;99.90;;;;;;5013740;28;20557;-70
2023/06/27 11:46:54;;;;;;;2.35;1.08;;;22.90;99.90;;;;;;5016517;28;20208;-70
2023/06/27 11:49:24;;;;;;;3.53;1.48;;;23.10;99.90;;;;;;5015881;28;20208;-70
2023/06/27 11:51:57;;;;;;;2.90;1.40;;;23.10;99.90;;;;;;5012891;28;20538;-70
2023/06/27 11:54:23;;;;;;;2.38;1.48;;;23.50;99.90;;;;;;5012604;28;20257;-71
2023/06/27 11:56:50;;;;;;;3.95;1.27;;;23.40;99.90;;;;;;5010147;28;20730;-71
2023/06/27 11:59:15;;;;;;;2.65;1.00;;;23.50;99.90;;;;;;5011905;28;20188;-70
2023/06/27 12:01:45;;;;;;;3.95;1.15;;;23.30;99.90;;;;;;5013018;28;20201;-71
2023/06/27 12:04:15;;;;;;;3.88;1.25;;;23.30;99.90;;;;;;5012652;28;20319;-70
2023/06/27 12:06:46;;;;;;;1.85;0.88;;;23.10;99.90;;;;;;5010453;28;20240;-69
2023/06/27 12:09:24;;;;;;;1.42;1.13;;;23.10;99.90;;;;;;5009664;28;20221;-71
2023/06/27 12:11:58;;;;;;;2.00;1.08;;;22.90;99.90;;;;;;5010261;28;20217;-70
2023/06/27 12:14:25;;;;;;;2.17;1.08;;;22.70;99.90;;;;;;5013902;28;20169;-70
2023/06/27 12:16:51;;;;;;;0.82;0.70;;;22.40;99.90;;;;;;5004918;28;20222;-70
2023/06/27 12:19:20;;;;;;;2.10;1.65;;;22.10;99.90;;;;;;5019547;28;20212;-70
2023/06/27 12:21:46;;;;;;;3.15;0.80;;;21.80;99.90;;;;;;5016430;28;20860;-69
2023/06/27 12:24:12;;;;;;;3.13;1.50;;;21.70;99.90;;;;;;5017710;28;20685;-70
2023/06/27 12:26:39;;;;;;;2.38;0.93;;;21.70;99.90;;;;;;5011733;28;20205;-70
2023/06/27 12:29:06;;;;;;;2.47;1.00;;;21.60;99.90;;;;;;5012625;28;20185;-70
2023/06/27 12:31:33;;;;;;;3.05;1.35;;;21.60;99.90;;;;;;5015316;28;20237;-68
2023/06/27 12:33:59;;;;;;;2.17;1.20;;;21.60;99.90;;;;;;5012709;28;20217;-70
2023/06/27 12:36:26;;;;;;;2.55;1.02;;;21.60;99.90;;;;;;5013398;28;20564;-70
2023/06/27 12:38:53;;;;;;;1.85;1.10;;;21.40;99.90;;;;;;5009891;28;20221;-71
2023/06/27 12:41:21;;;;;;;2.63;1.13;;;21.60;99.90;;;;;;5012662;28;20794;-72
2023/06/27 12:43:47;;;;;;;3.13;1.80;;;21.60;99.90;;;;;;5008194;28;20228;-72
2023/06/27 12:46:13;;;;;;;2.53;1.80;;;21.70;99.90;;;;;;5011995;28;20567;-69